Time;durP1;ratioP1;P1;durP2;ratioP2;P2;SDS_P1;SDS_P2;PMS_P1;PMS_P2;Temp;Humidity;BMP_temperature;BMP_pressure;BME280_temperature;BME280_humidity;BME280_pressure;Samples;Min_cycle;Max_cycle;Signal;HPM_P1;HPM_P2
2023/08/06 00:02:06;;;;;;;12.40;11.37;;;20.00;99.90;;;;;;5138062;27;20979;-82
2023/08/06 00:04:33;;;;;;;12.80;11.53;;;20.00;99.90;;;;;;5137194;27;20467;-82
2023/08/06 00:06:59;;;;;;;16.17;14.73;;;19.90;99.90;;;;;;5138561;27;20539;-83
2023/08/06 00:09:28;;;;;;;15.53;14.23;;;19.90;99.90;;;;;;5138060;27;20535;-84
2023/08/06 00:11:58;;;;;;;14.07;12.80;;;19.90;99.90;;;;;;5138226;27;20952;-84
2023/08/06 00:14:25;;;;;;;10.77;9.87;;;20.00;99.90;;;;;;5137556;27;20548;-81
2023/08/06 00:16:51;;;;;;;10.73;9.63;;;19.90;99.90;;;;;;5138246;27;20459;-82
2023/08/06 00:19:23;;;;;;;10.47;9.60;;;19.90;99.90;;;;;;5123918;27;20574;-82
2023/08/06 00:21:51;;;;;;;11.57;10.47;;;19.90;99.90;;;;;;5137125;27;20466;-82
2023/08/06 00:24:18;;;;;;;10.50;9.70;;;19.90;99.90;;;;;;5137919;27;20875;-82
2023/08/06 00:26:46;;;;;;;10.37;9.67;;;19.90;99.90;;;;;;5137470;27;20516;-82
2023/08/06 00:29:12;;;;;;;12.03;10.93;;;20.00;99.90;;;;;;5137656;27;20491;-81
2023/08/06 00:31:39;;;;;;;11.63;10.70;;;19.90;99.90;;;;;;5137267;27;20491;-81
2023/08/06 00:34:07;;;;;;;13.27;11.97;;;20.00;99.90;;;;;;5137702;27;20538;-81
2023/08/06 00:36:36;;;;;;;12.90;11.77;;;19.90;99.90;;;;;;5136746;27;20464;-82
2023/08/06 00:39:03;;;;;;;13.87;12.57;;;19.90;99.90;;;;;;5137324;27;20463;-81
2023/08/06 00:41:30;;;;;;;11.20;10.03;;;19.90;99.90;;;;;;5132518;27;20763;-82
2023/08/06 00:43:57;;;;;;;10.37;9.63;;;19.90;99.90;;;;;;5137651;27;20524;-81
2023/08/06 00:46:24;;;;;;;12.73;11.67;;;19.90;99.90;;;;;;5136571;27;20467;-81
2023/08/06 00:48:57;;;;;;;12.83;11.33;;;19.90;99.90;;;;;;5137157;27;20467;-81
2023/08/06 00:51:25;;;;;;;15.07;13.77;;;19.90;99.90;;;;;;5136754;27;20464;-81
2023/08/06 00:53:54;;;;;;;13.43;12.13;;;19.90;99.90;;;;;;5137125;27;20526;-81
2023/08/06 00:56:21;;;;;;;10.43;9.63;;;19.90;99.90;;;;;;5137236;27;20491;-82
2023/08/06 00:58:48;;;;;;;10.60;9.80;;;19.90;99.90;;;;;;5124252;27;20453;-81
2023/08/06 01:01:16;;;;;;;12.63;11.57;;;19.90;99.90;;;;;;5116802;28;20522;-82
2023/08/06 01:03:43;;;;;;;11.27;10.27;;;19.90;99.90;;;;;;5115695;28;20547;-81
2023/08/06 01:06:11;;;;;;;10.00;9.10;;;19.90;99.90;;;;;;5116567;28;20547;-81
2023/08/06 01:08:49;;;;;;;10.53;9.73;;;19.90;99.90;;;;;;5115670;28;20563;-81
2023/08/06 01:11:27;;;;;;;8.73;8.00;;;19.90;99.90;;;;;;5116514;28;20487;-82
2023/08/06 01:14:04;;;;;;;11.00;9.90;;;19.90;99.90;;;;;;5115826;28;20543;-82
2023/08/06 01:16:33;;;;;;;9.80;9.00;;;19.80;99.90;;;;;;5115705;28;20464;-82
2023/08/06 01:19:04;;;;;;;9.40;8.53;;;19.80;99.90;;;;;;5116185;28;20464;-82
2023/08/06 01:21:36;;;;;;;9.17;8.47;;;19.80;99.90;;;;;;5114759;28;20472;-82
2023/08/06 01:24:06;;;;;;;9.93;8.70;;;19.80;99.90;;;;;;5116162;28;20550;-81
2023/08/06 01:26:38;;;;;;;26.30;23.60;;;19.80;99.90;;;;;;5115798;28;20469;-82
2023/08/06 01:29:12;;;;;;;11.33;10.33;;;19.80;99.90;;;;;;5115521;28;20958;-82
2023/08/06 01:31:41;;;;;;;12.70;11.60;;;19.80;99.90;;;;;;5095647;28;20807;-81
2023/08/06 01:34:14;;;;;;;14.77;13.40;;;19.70;99.90;;;;;;5092248;28;20544;-81
2023/08/06 01:36:43;;;;;;;12.43;11.23;;;19.70;99.90;;;;;;5112331;28;21030;-81
2023/08/06 01:39:10;;;;;;;13.23;12.07;;;19.70;99.90;;;;;;5114808;28;20607;-81
2023/08/06 01:41:37;;;;;;;13.10;12.00;;;19.70;99.90;;;;;;5115310;28;20464;-81
2023/08/06 01:44:04;;;;;;;11.17;10.27;;;19.70;99.90;;;;;;5115717;28;20500;-81
2023/08/06 01:46:34;;;;;;;11.23;10.30;;;19.70;99.90;;;;;;5111897;28;20555;-81
2023/08/06 01:49:06;;;;;;;13.27;12.20;;;19.70;99.90;;;;;;5115158;28;20527;-81
2023/08/06 01:51:32;;;;;;;13.80;12.33;;;19.70;99.90;;;;;;5115703;28;20510;-81
2023/08/06 01:54:01;;;;;;;13.47;12.17;;;19.70;99.90;;;;;;5114323;28;20556;-81
2023/08/06 01:56:28;;;;;;;13.20;12.10;;;19.60;99.90;;;;;;5116118;28;20496;-80
2023/08/06 01:58:55;;;;;;;16.33;15.03;;;19.60;99.90;;;;;;5115731;28;20469;-82
2023/08/06 02:01:22;;;;;;;16.13;14.80;;;19.50;99.90;;;;;;5115554;28;20464;-82
2023/08/06 02:03:49;;;;;;;11.27;10.37;;;19.50;99.90;;;;;;5104670;28;20499;-82
2023/08/06 02:06:17;;;;;;;14.10;12.80;;;19.50;99.90;;;;;;5114282;28;20461;-82
2023/08/06 02:08:44;;;;;;;9.90;9.13;;;19.50;99.90;;;;;;5115061;28;20518;-82
2023/08/06 02:11:15;;;;;;;13.47;12.37;;;19.50;99.90;;;;;;5115508;28;21077;-81
2023/08/06 02:13:42;;;;;;;11.53;10.43;;;19.50;99.90;;;;;;5114975;28;20543;-81
2023/08/06 02:16:09;;;;;;;13.63;11.17;;;19.50;99.90;;;;;;5114964;28;20514;-81
2023/08/06 02:18:36;;;;;;;19.67;17.73;;;19.50;99.90;;;;;;5115515;28;20468;-81
2023/08/06 02:21:03;;;;;;;13.73;12.40;;;19.50;99.90;;;;;;5114372;28;20494;-80
2023/08/06 02:23:31;;;;;;;10.60;9.80;;;19.50;99.90;;;;;;5115390;28;20480;-81
2023/08/06 02:25:59;;;;;;;10.47;9.67;;;19.50;99.90;;;;;;5114732;28;20477;-81
2023/08/06 02:28:28;;;;;;;9.63;8.93;;;19.50;99.90;;;;;;5103643;28;20464;-81
2023/08/06 02:30:55;;;;;;;12.70;11.70;;;19.50;99.90;;;;;;5124786;27;20520;-82
2023/08/06 02:33:22;;;;;;;10.40;9.53;;;19.50;99.90;;;;;;5117430;27;20463;-81
2023/08/06 02:35:49;;;;;;;9.97;9.17;;;19.50;99.90;;;;;;5134497;27;20535;-81
2023/08/06 02:38:16;;;;;;;10.43;9.67;;;19.50;99.90;;;;;;5133864;27;20817;-81
2023/08/06 02:40:46;;;;;;;10.97;9.90;;;19.50;99.90;;;;;;5117841;27;20517;-81
2023/08/06 02:43:13;;;;;;;11.27;10.30;;;19.40;99.90;;;;;;5106351;28;20543;-81
2023/08/06 02:45:41;;;;;;;12.57;11.50;;;19.40;99.90;;;;;;5123123;27;20470;-81
2023/08/06 02:48:08;;;;;;;14.50;13.30;;;19.40;99.90;;;;;;5134534;27;20562;-81
2023/08/06 02:50:40;;;;;;;15.47;14.00;;;19.40;99.90;;;;;;5135438;27;20463;-81
2023/08/06 02:53:07;;;;;;;22.70;20.47;;;19.40;99.90;;;;;;5135017;27;20467;-81
2023/08/06 02:55:34;;;;;;;14.27;13.07;;;19.40;99.90;;;;;;5135063;27;20467;-81
2023/08/06 02:58:04;;;;;;;14.40;13.20;;;19.40;99.90;;;;;;5134775;27;20545;-81
2023/08/06 03:00:31;;;;;;;13.30;12.10;;;19.40;99.90;;;;;;5135201;27;20517;-81
2023/08/06 03:03:00;;;;;;;13.83;12.63;;;19.40;99.90;;;;;;5134541;27;20528;-81
2023/08/06 03:05:27;;;;;;;15.33;13.93;;;19.40;99.90;;;;;;5136652;27;20463;-81
2023/08/06 03:07:54;;;;;;;15.30;13.80;;;19.40;99.90;;;;;;5134841;27;20459;-81
2023/08/06 03:10:21;;;;;;;13.80;12.60;;;19.30;99.90;;;;;;5129396;27;20558;-81
2023/08/06 03:12:48;;;;;;;15.87;14.47;;;19.40;99.90;;;;;;5134833;27;20528;-81
2023/08/06 03:15:15;;;;;;;16.03;14.33;;;19.30;99.90;;;;;;5133666;27;20459;-81
2023/08/06 03:17:44;;;;;;;13.40;12.10;;;19.30;99.90;;;;;;5134429;27;20561;-81
2023/08/06 03:20:13;;;;;;;11.60;10.70;;;19.30;99.90;;;;;;5134493;27;20463;-81
2023/08/06 03:22:40;;;;;;;13.83;12.60;;;19.30;99.90;;;;;;5135414;27;20467;-81
2023/08/06 03:25:07;;;;;;;12.80;11.80;;;19.20;99.90;;;;;;5134666;27;20464;-81
2023/08/06 03:27:34;;;;;;;11.60;10.70;;;19.20;99.90;;;;;;5135137;27;20477;-81
2023/08/06 03:30:02;;;;;;;15.93;14.57;;;19.20;99.90;;;;;;5134758;27;20460;-81
2023/08/06 03:32:29;;;;;;;11.57;10.67;;;19.20;99.90;;;;;;5134821;27;20464;-81
2023/08/06 03:34:55;;;;;;;11.00;10.10;;;19.20;99.90;;;;;;5134312;27;20468;-81
2023/08/06 03:37:24;;;;;;;11.50;10.60;;;19.20;99.90;;;;;;5134721;27;20490;-81
2023/08/06 03:40:03;;;;;;;14.77;12.70;;;19.20;99.90;;;;;;5135055;27;20498;-81
2023/08/06 03:42:30;;;;;;;10.93;9.93;;;19.20;99.90;;;;;;5133455;27;20826;-81
2023/08/06 03:44:57;;;;;;;10.93;10.10;;;19.20;99.90;;;;;;5134614;27;20953;-81
2023/08/06 03:47:45;;;;;;;10.13;9.23;;;19.20;99.90;;;;;;5134083;27;20471;-81
2023/08/06 03:50:12;;;;;;;15.03;12.00;;;19.20;99.90;;;;;;5134430;27;20464;-81
2023/08/06 03:52:40;;;;;;;10.37;9.47;;;19.20;99.90;;;;;;5135169;27;20486;-81
2023/08/06 03:55:08;;;;;;;8.20;7.50;;;19.10;99.90;;;;;;5134282;27;20506;-81
2023/08/06 03:57:35;;;;;;;8.73;8.03;;;19.10;99.90;;;;;;5135171;27;20840;-81
2023/08/06 04:00:04;;;;;;;11.80;10.77;;;19.00;99.90;;;;;;5135909;27;20463;-81
2023/08/06 04:02:32;;;;;;;9.77;9.03;;;19.10;99.90;;;;;;5135049;27;20485;-80
2023/08/06 04:05:01;;;;;;;9.70;9.00;;;19.10;99.90;;;;;;5135495;27;20478;-81
2023/08/06 04:07:28;;;;;;;9.10;8.20;;;19.00;99.90;;;;;;5135182;27;20497;-80
2023/08/06 04:09:59;;;;;;;9.27;8.57;;;19.00;99.90;;;;;;5136051;27;20464;-80
2023/08/06 04:12:26;;;;;;;8.53;7.83;;;19.00;99.90;;;;;;5135641;27;20880;-80
2023/08/06 04:14:54;;;;;;;9.37;8.63;;;19.00;99.90;;;;;;5146888;27;20501;-81
2023/08/06 04:17:21;;;;;;;9.10;8.33;;;19.00;99.90;;;;;;5152058;27;20456;-81
2023/08/06 04:19:50;;;;;;;9.63;8.83;;;19.00;99.90;;;;;;5148732;27;20472;-79
2023/08/06 04:22:19;;;;;;;8.20;7.60;;;19.00;99.90;;;;;;5147810;27;20452;-81
2023/08/06 04:24:46;;;;;;;9.23;8.43;;;19.00;99.90;;;;;;5133582;27;20478;-81
2023/08/06 04:27:18;;;;;;;8.63;8.03;;;19.00;99.90;;;;;;5142870;27;20473;-81
2023/08/06 04:29:46;;;;;;;8.90;8.00;;;19.00;99.90;;;;;;5150071;27;20541;-81
2023/08/06 04:32:15;;;;;;;9.00;8.30;;;19.00;99.90;;;;;;5146529;27;20532;-81
2023/08/06 04:34:44;;;;;;;9.30;8.60;;;19.00;99.90;;;;;;5147712;27;20478;-81
2023/08/06 04:37:14;;;;;;;8.87;8.07;;;18.90;99.90;;;;;;5146815;27;20459;-81
2023/08/06 04:39:42;;;;;;;8.57;7.97;;;18.90;99.90;;;;;;5139414;27;20467;-81
2023/08/06 04:42:09;;;;;;;8.93;8.13;;;18.90;99.90;;;;;;5147707;27;20460;-81
2023/08/06 04:44:37;;;;;;;8.07;7.40;;;18.90;99.90;;;;;;5146689;27;20471;-80
2023/08/06 04:47:07;;;;;;;7.60;6.90;;;18.90;99.90;;;;;;5144789;27;20463;-80
2023/08/06 04:49:34;;;;;;;7.47;6.97;;;18.90;99.90;;;;;;5145518;27;20456;-81
2023/08/06 04:52:01;;;;;;;8.17;7.57;;;18.90;99.90;;;;;;5148046;27;20460;-82
2023/08/06 04:54:29;;;;;;;8.40;7.80;;;18.90;99.90;;;;;;5147913;27;20467;-80
2023/08/06 04:56:56;;;;;;;7.03;6.53;;;18.90;99.90;;;;;;5148036;27;20452;-81
2023/08/06 04:59:23;;;;;;;8.37;7.57;;;18.90;99.90;;;;;;5152611;27;20591;-81
2023/08/06 05:01:55;;;;;;;8.13;7.53;;;18.90;99.90;;;;;;5152585;27;20452;-81
2023/08/06 05:04:22;;;;;;;10.33;8.53;;;18.90;99.90;;;;;;5148237;27;20501;-81
2023/08/06 05:06:49;;;;;;;8.20;7.47;;;18.90;99.90;;;;;;5150002;27;20463;-81
2023/08/06 05:09:16;;;;;;;7.67;7.07;;;18.90;99.90;;;;;;5149556;27;20467;-81
2023/08/06 05:11:43;;;;;;;7.17;6.67;;;19.00;99.90;;;;;;5148014;27;20482;-81
2023/08/06 05:14:11;;;;;;;8.00;7.20;;;18.90;99.90;;;;;;5147210;27;20444;-81
2023/08/06 05:16:41;;;;;;;7.40;6.63;;;19.00;99.90;;;;;;5148535;27;20467;-80
2023/08/06 05:19:09;;;;;;;7.83;7.23;;;19.00;99.90;;;;;;5147970;27;20516;-81
2023/08/06 05:21:36;;;;;;;8.40;7.80;;;19.00;99.90;;;;;;5143797;27;20519;-81
2023/08/06 05:24:03;;;;;;;7.30;6.70;;;19.00;99.90;;;;;;5149294;27;20463;-80
2023/08/06 05:26:31;;;;;;;7.50;7.00;;;18.90;99.90;;;;;;5147455;27;20463;-81
2023/08/06 05:29:03;;;;;;;6.13;5.73;;;18.90;99.90;;;;;;5145451;27;20491;-80
2023/08/06 05:31:30;;;;;;;7.33;6.77;;;18.90;99.90;;;;;;5148470;27;20504;-80
2023/08/06 05:33:58;;;;;;;7.10;6.67;;;18.90;99.90;;;;;;5150352;27;20475;-80
2023/08/06 05:36:29;;;;;;;7.80;7.30;;;19.00;99.90;;;;;;5149825;27;20471;-81
2023/08/06 05:38:56;;;;;;;7.50;7.00;;;19.00;99.90;;;;;;5147047;27;20508;-81
2023/08/06 05:41:26;;;;;;;7.40;6.80;;;19.00;99.90;;;;;;5151176;27;20470;-80
2023/08/06 05:43:53;;;;;;;6.63;6.03;;;19.00;99.90;;;;;;5151696;27;20459;-81
2023/08/06 05:46:19;;;;;;;7.00;6.43;;;19.00;99.90;;;;;;5140438;27;20463;-80
2023/08/06 05:48:47;;;;;;;8.73;8.03;;;19.00;99.90;;;;;;5150033;27;20493;-80
2023/08/06 05:51:16;;;;;;;6.50;6.07;;;19.10;99.90;;;;;;5152129;27;20470;-81
2023/08/06 05:53:45;;;;;;;7.93;7.13;;;19.10;99.90;;;;;;5148357;27;20542;-81
2023/08/06 05:56:13;;;;;;;6.77;6.20;;;19.10;99.90;;;;;;5151089;27;20493;-81
2023/08/06 05:58:40;;;;;;;7.17;6.67;;;19.10;99.90;;;;;;5150710;27;20460;-80
2023/08/06 06:01:07;;;;;;;7.27;6.77;;;19.10;99.90;;;;;;5151747;27;20493;-80
2023/08/06 06:03:34;;;;;;;7.03;6.53;;;19.10;99.90;;;;;;5149531;27;20468;-81
2023/08/06 06:06:02;;;;;;;7.97;7.27;;;19.10;99.90;;;;;;5150321;27;20543;-80
2023/08/06 06:08:29;;;;;;;8.17;7.60;;;19.10;99.90;;;;;;5149059;27;20486;-81
2023/08/06 06:10:59;;;;;;;7.10;6.60;;;19.10;99.90;;;;;;5148330;27;20483;-81
2023/08/06 06:13:28;;;;;;;7.70;7.10;;;19.10;99.90;;;;;;5152532;27;20488;-80
2023/08/06 06:15:56;;;;;;;6.60;6.10;;;19.10;99.90;;;;;;5150516;27;20524;-83
2023/08/06 06:18:23;;;;;;;7.60;7.00;;;19.10;99.90;;;;;;5151494;27;20455;-80
2023/08/06 06:20:51;;;;;;;7.90;7.30;;;19.10;99.90;;;;;;5150080;27;20481;-80
2023/08/06 06:23:19;;;;;;;8.43;7.83;;;19.10;99.90;;;;;;5148454;27;20466;-81
2023/08/06 06:25:51;;;;;;;6.60;6.10;;;19.20;99.90;;;;;;5147295;27;20483;-81
2023/08/06 06:28:21;;;;;;;9.40;8.53;;;19.20;99.90;;;;;;5149505;27;20459;-80
2023/08/06 06:30:57;;;;;;;8.80;8.20;;;19.10;99.90;;;;;;5147651;27;20517;-80
2023/08/06 06:33:24;;;;;;;9.53;8.90;;;19.10;99.90;;;;;;5146007;27;20470;-81
2023/08/06 06:35:54;;;;;;;8.93;8.13;;;19.20;99.90;;;;;;5144982;27;20464;-81
2023/08/06 06:38:21;;;;;;;7.77;7.17;;;19.20;99.90;;;;;;5146892;27;20834;-81
2023/08/06 06:40:55;;;;;;;10.50;9.50;;;19.20;99.90;;;;;;5149356;27;20451;-81
2023/08/06 06:43:30;;;;;;;8.80;8.10;;;19.20;99.90;;;;;;5149131;27;20529;-80
2023/08/06 06:45:59;;;;;;;8.00;7.30;;;19.20;99.90;;;;;;5147763;27;20471;-80
2023/08/06 06:48:26;;;;;;;8.57;7.87;;;19.30;99.90;;;;;;5149200;27;20471;-80
2023/08/06 06:50:54;;;;;;;9.23;8.53;;;19.20;99.90;;;;;;5147494;27;20471;-81
2023/08/06 06:53:23;;;;;;;10.07;9.17;;;19.30;99.90;;;;;;5148479;27;20483;-82
2023/08/06 06:55:50;;;;;;;9.47;8.73;;;19.30;99.90;;;;;;5147663;27;20467;-81
2023/08/06 06:58:17;;;;;;;10.60;9.70;;;19.30;99.90;;;;;;5147917;27;20844;-81
2023/08/06 07:00:47;;;;;;;8.80;8.20;;;19.30;99.90;;;;;;5147166;27;20468;-80
2023/08/06 07:03:18;;;;;;;9.73;9.00;;;19.30;99.90;;;;;;5146975;27;20461;-81
2023/08/06 07:05:45;;;;;;;9.27;8.50;;;19.30;99.90;;;;;;5145212;27;20478;-80
2023/08/06 07:08:12;;;;;;;9.27;8.53;;;19.40;99.90;;;;;;5143478;27;21019;-81
2023/08/06 07:10:41;;;;;;;9.50;8.67;;;19.40;99.90;;;;;;5148593;27;20467;-81
2023/08/06 07:13:11;;;;;;;11.37;10.37;;;19.40;99.90;;;;;;5145693;27;20463;-81
2023/08/06 07:15:42;;;;;;;11.53;10.47;;;19.40;99.90;;;;;;5148690;27;20501;-81
2023/08/06 07:18:12;;;;;;;9.30;8.37;;;19.40;99.90;;;;;;5148342;27;20464;-80
2023/08/06 07:20:40;;;;;;;11.33;10.43;;;19.40;99.90;;;;;;5149202;27;20467;-79
2023/08/06 07:23:07;;;;;;;9.53;8.83;;;19.40;99.90;;;;;;5145019;27;20460;-80
2023/08/06 07:25:34;;;;;;;9.73;8.83;;;19.50;99.90;;;;;;5148046;27;20480;-81
2023/08/06 07:28:02;;;;;;;10.37;9.67;;;19.50;99.90;;;;;;5146259;27;20464;-81
2023/08/06 07:30:29;;;;;;;11.13;10.03;;;19.50;99.90;;;;;;5146572;27;20471;-81
2023/08/06 07:32:56;;;;;;;10.47;9.67;;;19.50;99.90;;;;;;5136868;27;20478;-81
2023/08/06 07:38:36;;;;;;;12.23;11.17;;;19.60;99.90;;;;;;5136520;27;20448;-85
2023/08/06 07:41:04;;;;;;;10.30;9.40;;;19.60;99.90;;;;;;5149684;27;20479;-81
2023/08/06 07:43:37;;;;;;;11.43;10.53;;;19.60;99.90;;;;;;5147561;27;20459;-80
2023/08/06 07:46:05;;;;;;;10.27;9.57;;;19.60;99.90;;;;;;5145137;27;20456;-82
2023/08/06 07:48:32;;;;;;;11.30;10.50;;;19.70;99.90;;;;;;5147236;27;20535;-81
2023/08/06 07:51:10;;;;;;;9.87;9.17;;;19.70;99.90;;;;;;5143615;27;20531;-81
2023/08/06 07:53:39;;;;;;;11.13;10.07;;;19.70;99.90;;;;;;5148060;27;20463;-81
2023/08/06 07:56:06;;;;;;;10.77;9.90;;;19.70;99.90;;;;;;5145927;27;20463;-81
2023/08/06 07:58:33;;;;;;;10.90;10.10;;;19.70;99.90;;;;;;5149647;27;20462;-82
2023/08/06 08:01:01;;;;;;;10.77;9.87;;;19.70;99.90;;;;;;5146425;27;20493;-81
2023/08/06 08:03:28;;;;;;;10.97;10.07;;;19.70;99.90;;;;;;5149774;27;20463;-80
2023/08/06 08:05:58;;;;;;;11.03;10.03;;;19.70;99.90;;;;;;5150699;27;20467;-81
2023/08/06 08:08:26;;;;;;;11.17;10.17;;;19.70;99.90;;;;;;5149718;27;20464;-80
2023/08/06 08:10:58;;;;;;;11.13;10.33;;;19.70;99.90;;;;;;5147538;27;20467;-82
2023/08/06 08:13:26;;;;;;;10.77;9.87;;;19.70;99.90;;;;;;5145728;27;20467;-80
2023/08/06 08:15:59;;;;;;;12.70;11.70;;;19.70;99.90;;;;;;5131779;27;20870;-81
2023/08/06 08:18:27;;;;;;;11.13;10.13;;;19.70;99.90;;;;;;5142983;27;20463;-80
2023/08/06 08:20:54;;;;;;;11.47;10.57;;;19.70;99.90;;;;;;5141673;27;20478;-81
2023/08/06 08:23:22;;;;;;;12.67;11.50;;;19.70;99.90;;;;;;5141316;27;20455;-80
2023/08/06 08:25:49;;;;;;;11.10;10.20;;;19.70;99.90;;;;;;5139445;27;20471;-81
2023/08/06 08:28:20;;;;;;;12.33;11.43;;;19.80;99.90;;;;;;5140815;27;20956;-81
2023/08/06 08:30:47;;;;;;;12.50;11.43;;;19.80;99.90;;;;;;5140274;27;20471;-80
2023/08/06 08:33:16;;;;;;;11.97;10.93;;;19.80;99.90;;;;;;5138887;27;20489;-81
2023/08/06 08:35:47;;;;;;;12.20;11.13;;;19.80;99.90;;;;;;5140435;27;20471;-80
2023/08/06 08:38:14;;;;;;;12.30;11.30;;;19.80;99.90;;;;;;5138752;27;20458;-81
2023/08/06 08:40:47;;;;;;;13.00;11.90;;;19.80;99.90;;;;;;5141190;27;20587;-80
2023/08/06 08:43:16;;;;;;;11.90;11.00;;;19.90;99.90;;;;;;5140340;27;20797;-80
2023/08/06 08:45:49;;;;;;;14.17;12.83;;;19.90;99.90;;;;;;5140502;27;20566;-80
2023/08/06 08:48:20;;;;;;;12.13;11.07;;;19.90;99.90;;;;;;5139017;27;20455;-82
2023/08/06 08:50:51;;;;;;;13.00;12.00;;;19.90;99.90;;;;;;5139766;27;20471;-80
2023/08/06 08:53:19;;;;;;;12.33;11.43;;;19.90;99.90;;;;;;5130125;27;20524;-81
2023/08/06 08:55:48;;;;;;;13.80;12.77;;;20.00;99.90;;;;;;5138841;27;20527;-80
2023/08/06 08:58:21;;;;;;;14.07;12.90;;;20.00;99.90;;;;;;5139216;27;20968;-80
2023/08/06 09:01:03;;;;;;;13.53;12.50;;;20.00;99.90;;;;;;5150746;27;20478;-82
2023/08/06 09:03:31;;;;;;;14.30;13.03;;;20.00;99.90;;;;;;5139975;27;20467;-81
2023/08/06 09:06:00;;;;;;;14.20;13.10;;;20.10;99.90;;;;;;5138012;27;21127;-80
2023/08/06 09:08:34;;;;;;;13.67;12.60;;;20.10;99.90;;;;;;5138958;27;20479;-80
2023/08/06 09:11:03;;;;;;;14.47;13.27;;;20.10;99.90;;;;;;5137960;27;20933;-81
2023/08/06 09:13:34;;;;;;;14.33;13.17;;;20.10;99.90;;;;;;5139065;27;20460;-80
2023/08/06 09:16:02;;;;;;;13.77;12.77;;;20.10;99.90;;;;;;5142780;27;20487;-81
2023/08/06 09:18:31;;;;;;;14.03;12.83;;;20.20;99.90;;;;;;5140632;27;20523;-81
2023/08/06 09:20:59;;;;;;;12.90;12.00;;;20.20;99.90;;;;;;5139951;27;20467;-81
2023/08/06 09:23:30;;;;;;;15.30;14.10;;;20.30;99.90;;;;;;5139785;27;20478;-82
2023/08/06 09:25:57;;;;;;;15.47;14.23;;;20.30;99.90;;;;;;5138610;27;20472;-81
2023/08/06 09:28:26;;;;;;;13.40;12.40;;;20.30;99.90;;;;;;5138380;27;20783;-80
2023/08/06 09:30:56;;;;;;;15.20;13.90;;;20.30;99.90;;;;;;5138184;27;20474;-81
2023/08/06 09:33:25;;;;;;;14.63;13.53;;;20.40;99.90;;;;;;5138819;27;20463;-80
2023/08/06 09:35:54;;;;;;;14.93;13.70;;;20.40;99.90;;;;;;5127625;27;20987;-80
2023/08/06 09:38:23;;;;;;;15.80;14.40;;;20.40;99.90;;;;;;5138034;27;20468;-81
2023/08/06 09:40:50;;;;;;;12.83;11.90;;;20.40;99.90;;;;;;5137603;27;20960;-80
2023/08/06 09:43:20;;;;;;;14.03;12.80;;;20.40;99.90;;;;;;5138792;27;20536;-82
2023/08/06 09:45:47;;;;;;;14.20;13.20;;;20.40;99.90;;;;;;5137966;27;20503;-81
2023/08/06 09:48:14;;;;;;;12.33;11.43;;;20.40;99.90;;;;;;5138632;27;20475;-81
2023/08/06 09:50:43;;;;;;;16.10;14.73;;;20.40;99.90;;;;;;5137649;27;20472;-81
2023/08/06 09:53:10;;;;;;;13.83;12.57;;;20.40;99.90;;;;;;5137844;27;20459;-81
2023/08/06 09:55:38;;;;;;;16.37;15.07;;;20.40;99.90;;;;;;5137848;27;20467;-82
2023/08/06 09:58:06;;;;;;;15.73;14.43;;;20.40;99.90;;;;;;5137838;27;20497;-81
2023/08/06 10:00:35;;;;;;;14.33;13.23;;;20.40;99.90;;;;;;5138148;27;20456;-81
2023/08/06 10:03:05;;;;;;;13.87;12.73;;;20.40;99.90;;;;;;5137630;27;20467;-81
2023/08/06 10:05:33;;;;;;;14.67;13.57;;;20.40;99.90;;;;;;5138212;27;20777;-81
2023/08/06 10:08:04;;;;;;;14.77;13.27;;;20.30;99.90;;;;;;5136160;27;20485;-82
2023/08/06 10:10:32;;;;;;;17.40;15.90;;;20.30;99.90;;;;;;5137150;27;20858;-81
2023/08/06 10:13:01;;;;;;;15.93;14.70;;;20.30;99.90;;;;;;5136604;27;20464;-80
2023/08/06 10:15:32;;;;;;;15.53;14.33;;;20.20;99.90;;;;;;5137432;27;20464;-81
2023/08/06 10:18:00;;;;;;;15.40;14.20;;;20.20;99.90;;;;;;5137013;27;20529;-81
2023/08/06 10:20:28;;;;;;;15.73;14.23;;;20.20;99.90;;;;;;5137594;27;20467;-80
2023/08/06 10:23:14;;;;;;;15.63;14.23;;;20.20;99.90;;;;;;5136401;27;20463;-80
2023/08/06 10:25:55;;;;;;;15.43;14.23;;;20.10;99.90;;;;;;5136745;27;20464;-81
2023/08/06 10:28:22;;;;;;;16.60;15.23;;;20.10;99.90;;;;;;5137202;27;20486;-81
2023/08/06 10:30:52;;;;;;;14.63;13.43;;;20.10;99.90;;;;;;5137378;27;20560;-82
2023/08/06 10:33:35;;;;;;;13.43;12.43;;;20.20;99.90;;;;;;5136560;27;20469;-81
2023/08/06 10:36:07;;;;;;;16.40;15.13;;;20.20;99.90;;;;;;5136449;27;20516;-80
2023/08/06 10:38:36;;;;;;;14.60;13.37;;;20.20;99.90;;;;;;5137712;27;20459;-82
2023/08/06 10:41:05;;;;;;;15.40;14.10;;;20.20;99.90;;;;;;5135875;27;20463;-82
2023/08/06 10:43:34;;;;;;;15.37;14.27;;;20.20;99.90;;;;;;5137330;27;20524;-82
2023/08/06 10:46:04;;;;;;;14.17;12.97;;;20.20;99.90;;;;;;5136863;27;21018;-82
2023/08/06 10:48:32;;;;;;;13.60;12.57;;;20.20;99.90;;;;;;5137738;27;20459;-82
2023/08/06 10:51:01;;;;;;;12.00;11.10;;;20.20;99.90;;;;;;5136424;27;20550;-83
2023/08/06 10:53:28;;;;;;;10.80;10.00;;;20.30;99.90;;;;;;5136314;27;20463;-82
2023/08/06 10:55:56;;;;;;;10.43;9.63;;;20.30;99.90;;;;;;5136198;27;20485;-82
2023/08/06 10:58:25;;;;;;;9.10;8.50;;;20.20;99.90;;;;;;5134653;27;20460;-82
2023/08/06 11:00:52;;;;;;;9.27;8.57;;;20.20;99.90;;;;;;5136272;27;20492;-82
2023/08/06 11:03:19;;;;;;;10.87;10.03;;;20.20;99.90;;;;;;5135166;27;20485;-81
2023/08/06 11:05:51;;;;;;;10.00;9.20;;;20.20;99.90;;;;;;5135953;27;20500;-80
2023/08/06 11:08:25;;;;;;;10.37;9.47;;;20.20;99.90;;;;;;5136070;27;20858;-81
2023/08/06 11:10:51;;;;;;;10.93;10.03;;;20.30;99.90;;;;;;5135651;27;20468;-80
2023/08/06 11:13:20;;;;;;;10.27;9.57;;;20.30;99.90;;;;;;5135938;27;20489;-82
2023/08/06 11:15:47;;;;;;;11.20;10.30;;;20.30;99.90;;;;;;5136625;27;20475;-82
2023/08/06 11:18:14;;;;;;;10.80;9.37;;;20.30;99.90;;;;;;5134481;27;20848;-81
2023/08/06 11:20:41;;;;;;;9.57;8.87;;;20.30;99.90;;;;;;5135034;27;20491;-81
2023/08/06 11:23:11;;;;;;;11.33;10.43;;;20.30;99.90;;;;;;5134270;27;20551;-82
2023/08/06 11:25:44;;;;;;;9.87;9.10;;;20.30;99.90;;;;;;5135396;27;20547;-82
2023/08/06 11:28:12;;;;;;;9.50;8.80;;;20.40;99.90;;;;;;5134486;27;20493;-81
2023/08/06 11:30:41;;;;;;;9.27;8.57;;;20.40;99.90;;;;;;5134642;27;20987;-81
2023/08/06 11:33:09;;;;;;;9.37;8.67;;;20.40;99.90;;;;;;5134180;27;20522;-81
2023/08/06 11:35:37;;;;;;;10.03;9.30;;;20.40;99.90;;;;;;5134850;27;20471;-81
2023/08/06 11:38:04;;;;;;;9.43;8.73;;;20.40;99.90;;;;;;5133655;27;20501;-81
2023/08/06 11:40:32;;;;;;;9.07;8.40;;;20.40;99.90;;;;;;5134379;27;20809;-81
2023/08/06 11:43:01;;;;;;;9.50;8.80;;;20.40;99.90;;;;;;5134117;27;20504;-81
2023/08/06 11:45:28;;;;;;;8.67;7.97;;;20.40;99.90;;;;;;5133565;27;20807;-81
2023/08/06 11:47:57;;;;;;;9.53;8.67;;;20.40;99.90;;;;;;5135026;27;20459;-81
2023/08/06 11:50:25;;;;;;;9.37;8.67;;;20.40;99.90;;;;;;5133662;27;20463;-81
2023/08/06 11:53:03;;;;;;;8.20;7.50;;;20.40;99.90;;;;;;5134388;27;20949;-82
2023/08/06 11:55:30;;;;;;;8.83;8.13;;;20.40;99.90;;;;;;5134324;27;20539;-81
2023/08/06 11:57:58;;;;;;;8.70;8.00;;;20.40;99.90;;;;;;5134609;27;20984;-81
2023/08/06 12:00:26;;;;;;;9.60;8.90;;;20.40;99.90;;;;;;5134268;27;20466;-81
2023/08/06 12:02:54;;;;;;;9.27;8.57;;;20.40;99.90;;;;;;5135017;27;21048;-81
2023/08/06 12:05:24;;;;;;;9.90;9.10;;;20.40;99.90;;;;;;5123304;27;20468;-82
2023/08/06 12:07:52;;;;;;;10.73;9.90;;;20.40;99.90;;;;;;5133961;27;20475;-81
2023/08/06 12:10:21;;;;;;;10.03;9.23;;;20.40;99.90;;;;;;5134261;27;20471;-81
2023/08/06 12:12:48;;;;;;;10.40;9.60;;;20.40;99.90;;;;;;5134845;27;20459;-82
2023/08/06 12:15:15;;;;;;;10.27;9.47;;;20.40;99.90;;;;;;5133336;27;20478;-81
2023/08/06 12:17:43;;;;;;;10.27;9.27;;;20.40;99.90;;;;;;5134409;27;20463;-81
2023/08/06 12:20:11;;;;;;;11.40;10.50;;;20.50;99.90;;;;;;5134672;27;20460;-80
2023/08/06 12:22:40;;;;;;;11.73;10.53;;;20.50;99.90;;;;;;5133820;27;20514;-81
2023/08/06 12:27:54;;;;;;;11.87;10.87;;;20.50;99.90;;;;;;5135061;27;20990;-81
2023/08/06 12:30:21;;;;;;;9.50;8.80;;;20.50;99.90;;;;;;5133842;27;20483;-81
2023/08/06 12:32:48;;;;;;;8.67;8.07;;;20.50;99.90;;;;;;5130345;27;20460;-80
2023/08/06 12:35:15;;;;;;;9.27;8.67;;;20.50;99.90;;;;;;5150768;27;20467;-80
2023/08/06 12:48:45;;;;;;;11.93;10.93;;;20.80;99.90;;;;;;5149204;27;21013;-81
2023/08/06 12:51:33;;;;;;;11.10;10.20;;;20.80;99.90;;;;;;5137367;27;20451;-81
2023/08/06 12:54:01;;;;;;;11.43;10.63;;;20.80;99.90;;;;;;5137256;27;20556;-80
2023/08/06 12:56:29;;;;;;;13.87;12.73;;;20.80;99.90;;;;;;5137762;27;20532;-80
2023/08/06 12:58:58;;;;;;;12.50;11.60;;;20.80;99.90;;;;;;5137334;27;20469;-81
2023/08/06 13:01:25;;;;;;;11.20;10.37;;;20.70;99.90;;;;;;5138171;27;20530;-80